Time,TemperatureF,DewpointF,PressureIn,WindDirection,WindDirectionDegrees,WindSpeedMPH,WindSpeedGustMPH,Humidity,HourlyPrecipIn,Conditions,Clouds,dailyrainin,SolarRadiationWatts/m^2,SoftwareType,DateUTC
2013-11-11 00:02:00,45.0,20.0,-100.00,ESE,112,2.0,8.0,37,0.00,,,0.00,2.000000,,2013-11-11 00:02:00,
2013-11-11 00:11:00,43.0,22.0,-100.00,East,100,2.0,10.0,42,0.00,,,0.00,0.000000,,2013-11-11 00:11:00,
2013-11-11 00:42:00,43.0,22.0,-100.00,East,100,2.0,10.0,42,0.00,,,0.00,0.000000,,2013-11-11 00:42:00,
2013-11-11 00:52:00,43.0,22.0,-100.00,East,100,2.0,10.0,42,0.00,,,0.00,0.000000,,2013-11-11 00:52:00,
2013-11-11 01:02:00,43.0,22.0,-100.00,East,100,2.0,10.0,42,0.00,,,0.00,0.000000,,2013-11-11 01:02:00,
2013-11-11 01:11:00,41.0,21.0,-100.00,ESE,114,3.0,9.0,45,0.00,,,0.00,0.000000,,2013-11-11 01:11:00,
2013-11-11 01:42:00,41.0,21.0,-100.00,ESE,114,3.0,9.0,45,0.00,,,0.00,0.000000,,2013-11-11 01:42:00,
2013-11-11 01:52:00,41.0,21.0,-100.00,ESE,114,3.0,9.0,45,0.00,,,0.00,0.000000,,2013-11-11 01:52:00,
2013-11-11 02:02:00,41.0,21.0,-100.00,ESE,114,3.0,9.0,45,0.00,,,0.00,0.000000,,2013-11-11 02:02:00,
2013-11-11 02:11:00,38.0,22.0,-100.00,ENE,62,1.0,6.0,51,0.00,,,0.00,0.000000,,2013-11-11 02:11:00,
2013-11-11 02:42:00,38.0,22.0,-100.00,ENE,62,1.0,6.0,51,0.00,,,0.00,0.000000,,2013-11-11 02:42:00,
2013-11-11 02:52:00,38.0,22.0,-100.00,ENE,62,1.0,6.0,51,0.00,,,0.00,0.000000,,2013-11-11 02:52:00,
2013-11-11 03:02:00,38.0,22.0,-100.00,ENE,62,1.0,6.0,51,0.00,,,0.00,0.000000,,2013-11-11 03:02:00,
2013-11-11 03:11:00,35.0,23.0,-100.00,East,100,1.0,3.0,60,0.00,,,0.00,0.000000,,2013-11-11 03:11:00,
2013-11-11 03:44:00,35.0,23.0,-100.00,East,100,1.0,3.0,60,0.00,,,0.00,0.000000,,2013-11-11 03:44:00,
2013-11-11 03:55:00,35.0,23.0,-100.00,East,100,1.0,3.0,60,0.00,,,0.00,0.000000,,2013-11-11 03:55:00,
2013-11-11 04:04:00,35.0,23.0,-100.00,East,100,1.0,3.0,60,0.00,,,0.00,0.000000,,2013-11-11 04:04:00,
2013-11-11 04:11:00,31.0,23.0,-100.00,SE,144,1.0,2.0,72,0.00,,,0.00,0.000000,,2013-11-11 04:11:00,
2013-11-11 04:43:00,31.0,23.0,-100.00,SE,144,1.0,2.0,72,0.00,,,0.00,0.000000,,2013-11-11 04:43:00,
2013-11-11 04:53:00,31.0,23.0,-100.00,SE,144,1.0,2.0,72,0.00,,,0.00,0.000000,,2013-11-11 04:53:00,
2013-11-11 05:03:00,31.0,23.0,-100.00,SE,144,1.0,2.0,72,0.00,,,0.00,0.000000,,2013-11-11 05:03:00,
2013-11-11 05:11:00,29.0,22.0,-100.00,NW,315,2.0,2.0,76,0.00,,,0.00,0.000000,,2013-11-11 05:11:00,
2013-11-11 05:44:00,29.0,22.0,-100.00,NW,315,2.0,2.0,76,0.00,,,0.00,0.000000,,2013-11-11 05:44:00,
2013-11-11 05:54:00,29.0,22.0,-100.00,NW,315,2.0,2.0,76,0.00,,,0.00,0.000000,,2013-11-11 05:54:00,
2013-11-11 06:03:00,29.0,22.0,-100.00,NW,315,2.0,2.0,76,0.00,,,0.00,0.000000,,2013-11-11 06:03:00,
2013-11-11 06:11:00,29.0,23.0,-100.00,SE,146,2.0,3.0,79,0.00,,,0.00,0.000000,,2013-11-11 06:11:00,
2013-11-11 06:42:00,29.0,23.0,-100.00,SE,146,2.0,3.0,79,0.00,,,0.00,0.000000,,2013-11-11 06:42:00,
2013-11-11 06:52:00,29.0,23.0,-100.00,SE,146,2.0,3.0,79,0.00,,,0.00,0.000000,,2013-11-11 06:52:00,
2013-11-11 07:02:00,29.0,23.0,-100.00,SE,146,2.0,3.0,79,0.00,,,0.00,0.000000,,2013-11-11 07:02:00,
2013-11-11 07:11:00,28.0,24.0,-100.00,NW,313,2.0,3.0,85,0.00,,,0.00,0.000000,,2013-11-11 07:11:00,
2013-11-11 07:43:00,28.0,24.0,-100.00,NW,313,2.0,3.0,85,0.00,,,0.00,0.000000,,2013-11-11 07:43:00,
2013-11-11 07:52:00,28.0,24.0,-100.00,NW,313,2.0,3.0,85,0.00,,,0.00,0.000000,,2013-11-11 07:52:00,
2013-11-11 08:02:00,28.0,24.0,-100.00,NW,313,2.0,3.0,85,0.00,,,0.00,0.000000,,2013-11-11 08:02:00,
2013-11-11 08:11:00,28.0,22.0,-100.00,NW,321,2.0,3.0,78,0.00,,,0.00,0.000000,,2013-11-11 08:11:00,
2013-11-11 08:42:00,28.0,22.0,-100.00,NW,321,2.0,3.0,78,0.00,,,0.00,0.000000,,2013-11-11 08:42:00,
2013-11-11 08:52:00,28.0,22.0,-100.00,NW,321,2.0,3.0,78,0.00,,,0.00,0.000000,,2013-11-11 08:52:00,
2013-11-11 09:02:00,28.0,22.0,-100.00,NW,321,2.0,3.0,78,0.00,,,0.00,0.000000,,2013-11-11 09:02:00,
2013-11-11 09:11:00,28.0,24.0,-100.00,WNW,301,1.0,3.0,84,0.00,,,0.00,0.000000,,2013-11-11 09:11:00,
2013-11-11 09:43:00,28.0,24.0,-100.00,WNW,301,1.0,3.0,84,0.00,,,0.00,0.000000,,2013-11-11 09:43:00,
2013-11-11 09:54:00,28.0,24.0,-100.00,WNW,301,1.0,3.0,84,0.00,,,0.00,0.000000,,2013-11-11 09:54:00,
2013-11-11 10:03:00,28.0,24.0,-100.00,WNW,301,1.0,3.0,84,0.00,,,0.00,0.000000,,2013-11-11 10:03:00,
2013-11-11 10:11:00,28.0,22.0,-100.00,West,278,0.0,3.0,79,0.00,,,0.00,0.000000,,2013-11-11 10:11:00,
2013-11-11 10:42:00,28.0,22.0,-100.00,West,278,0.0,3.0,79,0.00,,,0.00,0.000000,,2013-11-11 10:42:00,
2013-11-11 10:52:00,28.0,22.0,-100.00,West,278,0.0,3.0,79,0.00,,,0.00,0.000000,,2013-11-11 10:52:00,
2013-11-11 11:03:00,28.0,22.0,-100.00,West,278,0.0,3.0,79,0.00,,,0.00,0.000000,,2013-11-11 11:03:00,
2013-11-11 11:11:00,29.0,18.0,-100.00,WSW,257,0.0,5.0,63,0.00,,,0.00,0.000000,,2013-11-11 11:11:00,
2013-11-11 11:42:00,29.0,18.0,-100.00,WSW,257,0.0,5.0,63,0.00,,,0.00,0.000000,,2013-11-11 11:42:00,
2013-11-11 11:52:00,29.0,18.0,-100.00,WSW,257,0.0,5.0,63,0.00,,,0.00,0.000000,,2013-11-11 11:52:00,
2013-11-11 12:02:00,29.0,18.0,-100.00,WSW,257,0.0,5.0,63,0.00,,,0.00,0.000000,,2013-11-11 12:02:00,
2013-11-11 12:11:00,28.0,22.0,-100.00,WNW,303,0.0,0.0,78,0.00,,,-99.99,2.000000,,2013-11-11 12:11:00,
2013-11-11 12:42:00,28.0,22.0,-100.00,WNW,303,0.0,0.0,78,0.00,,,-99.99,2.000000,,2013-11-11 12:42:00,
2013-11-11 12:52:00,28.0,22.0,-100.00,WNW,303,0.0,0.0,78,0.00,,,-99.99,2.000000,,2013-11-11 12:52:00,
2013-11-11 13:01:00,28.0,22.0,-100.00,WNW,303,0.0,0.0,78,0.00,,,-99.99,2.000000,,2013-11-11 13:01:00,
2013-11-11 13:11:00,38.0,28.0,-100.00,West,277,1.0,3.0,66,0.00,,,-99.99,128.000000,,2013-11-11 13:11:00,
2013-11-11 13:42:00,38.0,28.0,-100.00,West,277,1.0,3.0,66,0.00,,,-99.99,128.000000,,2013-11-11 13:42:00,
2013-11-11 13:52:00,38.0,28.0,-100.00,West,277,1.0,3.0,66,0.00,,,-99.99,128.000000,,2013-11-11 13:52:00,
2013-11-11 14:02:00,38.0,28.0,-100.00,West,277,1.0,3.0,66,0.00,,,-99.99,128.000000,,2013-11-11 14:02:00,
2013-11-11 14:11:00,44.0,30.0,-100.00,WSW,256,1.0,4.0,57,0.00,,,-99.99,264.000000,,2013-11-11 14:11:00,
2013-11-11 14:42:00,44.0,30.0,-100.00,WSW,256,1.0,4.0,57,0.00,,,-99.99,264.000000,,2013-11-11 14:42:00,
2013-11-11 14:52:00,44.0,30.0,-100.00,WSW,256,1.0,4.0,57,0.00,,,-99.99,264.000000,,2013-11-11 14:52:00,
2013-11-11 15:02:00,44.0,30.0,-100.00,WSW,256,1.0,4.0,57,0.00,,,-99.99,264.000000,,2013-11-11 15:02:00,
2013-11-11 15:11:00,53.0,26.0,-100.00,SW,231,2.0,5.0,35,0.00,,,0.00,533.000000,,2013-11-11 15:11:00,
2013-11-11 16:11:00,57.0,20.0,-100.00,WSW,256,4.0,6.0,23,0.00,,,0.00,676.000000,,2013-11-11 16:11:00,
2013-11-11 16:53:00,57.0,20.0,-100.00,WSW,256,4.0,6.0,23,0.00,,,0.00,676.000000,,2013-11-11 16:53:00,
2013-11-11 17:03:00,57.0,20.0,-100.00,WSW,256,4.0,6.0,23,0.00,,,0.00,676.000000,,2013-11-11 17:03:00,
2013-11-11 17:11:00,60.0,23.0,-100.00,ENE,60,3.0,6.0,24,0.00,,,0.00,631.000000,,2013-11-11 17:11:00,
2013-11-11 17:42:00,60.0,23.0,-100.00,ENE,60,3.0,6.0,24,0.00,,,0.00,631.000000,,2013-11-11 17:42:00,
2013-11-11 17:52:00,60.0,23.0,-100.00,ENE,60,3.0,6.0,24,0.00,,,0.00,631.000000,,2013-11-11 17:52:00,
2013-11-11 18:02:00,60.0,23.0,-100.00,ENE,60,3.0,6.0,24,0.00,,,0.00,631.000000,,2013-11-11 18:02:00,
2013-11-11 18:52:00,64.0,15.0,-100.00,ENE,57,3.0,6.0,15,0.00,,,0.00,679.000000,,2013-11-11 18:52:00,
2013-11-11 19:02:00,64.0,15.0,-100.00,ENE,57,3.0,6.0,15,0.00,,,0.00,679.000000,,2013-11-11 19:02:00,
2013-11-11 20:11:00,62.0,12.0,-100.00,ENE,77,5.0,9.0,14,0.00,,,0.00,350.000000,,2013-11-11 20:11:00,
2013-11-11 20:52:00,62.0,12.0,-100.00,ENE,77,5.0,9.0,14,0.00,,,0.00,350.000000,,2013-11-11 20:52:00,
2013-11-11 21:02:00,62.0,12.0,-100.00,ENE,77,5.0,9.0,14,0.00,,,0.00,350.000000,,2013-11-11 21:02:00,
2013-11-11 22:11:00,56.0,13.0,-100.00,ENE,66,2.0,6.0,18,0.00,,,0.00,22.000000,,2013-11-11 22:11:00,
2013-11-11 22:43:00,56.0,13.0,-100.00,ENE,66,2.0,6.0,18,0.00,,,0.00,22.000000,,2013-11-11 22:43:00,
2013-11-11 22:53:00,56.0,13.0,-100.00,ENE,66,2.0,6.0,18,0.00,,,0.00,22.000000,,2013-11-11 22:53:00,
2013-11-11 23:03:00,56.0,13.0,-100.00,ENE,66,2.0,6.0,18,0.00,,,0.00,22.000000,,2013-11-11 23:03:00,
2013-11-11 23:11:00,52.0,14.0,-100.00,ENE,72,2.0,4.0,22,0.00,,,0.00,3.000000,,2013-11-11 23:11:00,
2013-11-11 23:43:00,52.0,14.0,-100.00,ENE,72,2.0,4.0,22,0.00,,,0.00,3.000000,,2013-11-11 23:43:00,
2013-11-11 23:53:00,52.0,14.0,-100.00,ENE,72,2.0,4.0,22,0.00,,,0.00,3.000000,,2013-11-11 23:53:00,